Fogang, China
Current Conditions -  °F | °C
As of 2:30 PM on Sunday 21 Dec 2014 (Local Time) from ZGGG Reporting Station
Clear Clear  
Wind Chill: 66°   Ceiling: Unl
Heat Index: 66°   Visibility: 6mi
Dew Point: 36°   Wind: 11mph
Humidity: 32%   Direction: 20°NNE
Pressure: 30.24"   Gusts: 22mph
Location:  23.87°N, 113.53°E
Report Text: ZGGG 210630Z 02005G10MPS 330V060 CAVOK 19/02 Q1024 NOSIG
Loading
Personal Weather Stations






























Interactive Weather Map New forecast layout! Learn more

10-Day Weather Forecast

Advertisements
Track Severe Weather on mobile